Time;durP1;ratioP1;P1;durP2;ratioP2;P2;SDS_P1;SDS_P2;PMS_P1;PMS_P2;Temp;Humidity;BMP_temperature;BMP_pressure;BME280_temperature;BME280_humidity;BME280_pressure;Samples;Min_cycle;Max_cycle;Signal;HPM_P1;HPM_P2
2022/09/13 00:01:16;;;;;;;;;;;19.20;99.90;;;;;;4593681;19;19919;-26
2022/09/13 00:02:49;;;;;;;;;;;19.20;99.90;;;;;;4593265;19;19926;-27
2022/09/13 00:04:21;;;;;;;;;;;19.20;99.90;;;;;;4593649;19;19919;-25
2022/09/13 00:05:53;;;;;;;;;;;19.20;99.90;;;;;;4593742;19;19950;-27
2022/09/13 00:07:29;;;;;;;;;;;19.20;99.90;;;;;;4592805;19;19919;-24
2022/09/13 00:09:10;;;;;;;;;;;19.20;99.90;;;;;;4591727;19;19927;-24
2022/09/13 00:10:43;;;;;;;;;;;19.20;99.90;;;;;;4591343;19;20020;-26
2022/09/13 00:12:16;;;;;;;;;;;19.20;99.90;;;;;;4593498;19;20285;-27
2022/09/13 00:13:50;;;;;;;;;;;19.20;99.90;;;;;;4591897;19;19926;-24
2022/09/13 00:15:25;;;;;;;;;;;19.20;99.90;;;;;;4591978;19;20360;-24
2022/09/13 00:16:58;;;;;;;;;;;19.20;99.90;;;;;;4591920;19;19915;-24
2022/09/13 00:18:30;;;;;;;;;;;19.20;99.90;;;;;;4594956;19;19947;-26
2022/09/13 00:20:03;;;;;;;;;;;19.20;99.90;;;;;;4591455;19;19978;-27
2022/09/13 00:21:36;;;;;;;;;;;19.20;99.90;;;;;;4592131;19;19931;-24
2022/09/13 00:23:12;;;;;;;;;;;19.20;99.90;;;;;;4592536;19;19915;-23
2022/09/13 00:24:44;;;;;;;;;;;19.20;99.90;;;;;;4590592;19;19966;-27
2022/09/13 00:26:22;;;;;;;;;;;19.20;99.90;;;;;;4590250;19;20413;-27
2022/09/13 00:27:55;;;;;;;;;;;19.20;99.90;;;;;;4589367;19;20331;-25
2022/09/13 00:29:28;;;;;;;;;;;19.20;99.90;;;;;;4590110;19;19915;-25
2022/09/13 00:31:05;;;;;;;;;;;19.20;99.90;;;;;;4590164;19;20253;-25
2022/09/13 00:32:37;;;;;;;;;;;19.20;99.90;;;;;;4589491;19;19949;-26
2022/09/13 00:34:09;;;;;;;;;;;19.20;99.90;;;;;;4589081;19;19918;-27
2022/09/13 00:35:41;;;;;;;;;;;19.20;99.90;;;;;;4588826;19;20253;-26
2022/09/13 00:37:14;;;;;;;;;;;19.20;99.90;;;;;;4591171;19;19919;-24
2022/09/13 00:38:45;;;;;;;;;;;19.20;99.90;;;;;;4591335;19;19923;-24
2022/09/13 00:40:20;;;;;;;;;;;19.20;99.90;;;;;;4590657;19;19918;-26
2022/09/13 00:41:53;;;;;;;;;;;19.20;99.90;;;;;;4590474;19;19911;-24
2022/09/13 00:43:43;;;;;;;;;;;19.20;99.90;;;;;;4590771;19;19952;-26
2022/09/13 00:45:18;;;;;;;;;;;19.20;99.90;;;;;;4590254;19;19931;-26
2022/09/13 00:46:55;;;;;;;;;;;19.20;99.90;;;;;;4590304;19;19949;-25
2022/09/13 00:48:27;;;;;;;;;;;19.20;99.90;;;;;;4586517;19;19911;-26
2022/09/13 00:50:07;;;;;;;;;;;19.20;99.90;;;;;;4588555;19;19939;-25
2022/09/13 00:51:41;;;;;;;;;;;19.20;99.90;;;;;;4588997;19;20404;-25
2022/09/13 00:53:25;;;;;;;;;;;19.20;99.90;;;;;;4586582;19;20016;-27
2022/09/13 00:55:12;;;;;;;;;;;19.20;99.90;;;;;;4588740;19;19915;-25
2022/09/13 00:56:49;;;;;;;;;;;19.20;99.90;;;;;;4588764;19;19935;-25
2022/09/13 00:58:23;;;;;;;;;;;19.20;99.90;;;;;;4588078;19;19932;-27
2022/09/13 01:00:10;;;;;;;;;;;19.20;99.90;;;;;;4587799;19;20107;-25
2022/09/13 01:01:49;;;;;;;;;;;19.20;99.90;;;;;;4588549;19;19919;-24
2022/09/13 01:03:32;;;;;;;;;;;19.20;99.90;;;;;;4585463;19;19915;-25
2022/09/13 01:05:10;;;;;;;;;;;19.20;99.90;;;;;;4586205;19;19958;-27
2022/09/13 01:06:46;;;;;;;;;;;19.20;99.90;;;;;;4588932;19;19915;-25
2022/09/13 01:08:22;;;;;;;;;;;19.20;99.90;;;;;;4590679;19;19982;-25
2022/09/13 01:09:55;;;;;;;;;;;19.20;99.90;;;;;;4592008;19;19922;-25
2022/09/13 01:11:37;;;;;;;;;;;19.20;99.90;;;;;;4590190;19;19923;-26
2022/09/13 01:13:16;;;;;;;;;;;19.20;99.90;;;;;;4592203;19;19923;-27
2022/09/13 01:14:48;;;;;;;;;;;19.20;99.90;;;;;;4590892;19;20242;-27
2022/09/13 01:16:23;;;;;;;;;;;19.20;99.90;;;;;;4591984;19;20347;-25
2022/09/13 01:17:58;;;;;;;;;;;19.20;99.90;;;;;;4591461;19;19925;-27
2022/09/13 01:19:29;;;;;;;;;;;19.20;99.90;;;;;;4590415;19;19922;-27
2022/09/13 01:21:05;;;;;;;;;;;19.20;99.90;;;;;;4587360;19;20007;-27
2022/09/13 01:23:12;;;;;;;;;;;19.20;99.90;;;;;;4591396;19;19923;-27
2022/09/13 01:24:56;;;;;;;;;;;19.20;99.90;;;;;;4589885;19;19966;-25
2022/09/13 01:26:28;;;;;;;;;;;19.20;99.90;;;;;;4589915;19;19922;-25
2022/09/13 01:28:11;;;;;;;;;;;19.20;99.90;;;;;;4588722;19;19938;-25
2022/09/13 01:30:03;;;;;;;;;;;19.20;99.90;;;;;;4588357;19;19927;-25
2022/09/13 01:31:53;;;;;;;;;;;19.20;99.90;;;;;;4589108;19;19918;-26
2022/09/13 01:33:26;;;;;;;;;;;19.20;99.90;;;;;;4589258;19;19911;-25
2022/09/13 01:35:17;;;;;;;;;;;19.20;99.90;;;;;;4587994;19;19922;-27
2022/09/13 01:36:54;;;;;;;;;;;19.20;99.90;;;;;;4586597;19;20420;-25
2022/09/13 01:38:43;;;;;;;;;;;19.20;99.90;;;;;;4588477;19;19918;-25
2022/09/13 01:40:21;;;;;;;;;;;19.20;99.90;;;;;;4585940;19;20039;-24
2022/09/13 01:41:55;;;;;;;;;;;19.20;99.90;;;;;;4586441;19;20477;-27
2022/09/13 01:43:32;;;;;;;;;;;19.20;99.90;;;;;;4588550;19;20362;-25
2022/09/13 01:45:03;;;;;;;;;;;19.20;99.90;;;;;;4588730;19;19919;-27
2022/09/13 01:46:54;;;;;;;;;;;19.20;99.90;;;;;;4589402;19;19971;-24
2022/09/13 01:48:32;;;;;;;;;;;19.20;99.90;;;;;;4588633;19;19919;-25
2022/09/13 01:50:12;;;;;;;;;;;19.20;99.90;;;;;;4586798;19;19951;-26
2022/09/13 01:51:51;;;;;;;;;;;19.20;99.90;;;;;;4588760;19;19919;-25
2022/09/13 01:53:26;;;;;;;;;;;19.20;99.90;;;;;;4587062;19;20327;-24
2022/09/13 01:55:00;;;;;;;;;;;19.20;99.90;;;;;;4589669;19;19943;-27
2022/09/13 01:56:43;;;;;;;;;;;19.20;99.90;;;;;;4589162;19;20014;-24
2022/09/13 01:58:22;;;;;;;;;;;19.20;99.90;;;;;;4588413;19;19923;-25
2022/09/13 02:00:17;;;;;;;;;;;19.20;99.90;;;;;;4587542;19;19919;-25
2022/09/13 02:02:01;;;;;;;;;;;19.10;99.90;;;;;;4588658;19;19970;-24
2022/09/13 02:03:43;;;;;;;;;;;19.20;99.90;;;;;;4587343;19;19969;-25
2022/09/13 02:05:25;;;;;;;;;;;19.20;99.90;;;;;;4588993;19;19979;-26
2022/09/13 02:07:02;;;;;;;;;;;19.20;99.90;;;;;;4587637;19;20023;-25
2022/09/13 02:08:46;;;;;;;;;;;19.20;99.90;;;;;;4588075;19;19918;-27
2022/09/13 02:10:23;;;;;;;;;;;19.10;99.90;;;;;;4588680;19;19915;-24
2022/09/13 02:11:58;;;;;;;;;;;19.10;99.90;;;;;;4587719;19;19911;-25
2022/09/13 02:13:34;;;;;;;;;;;19.20;99.90;;;;;;4586686;19;19911;-25
2022/09/13 02:15:08;;;;;;;;;;;19.20;99.90;;;;;;4588666;19;20239;-25
2022/09/13 02:16:53;;;;;;;;;;;19.10;99.90;;;;;;4587587;19;20355;-25
2022/09/13 02:18:35;;;;;;;;;;;19.20;99.90;;;;;;4587461;19;19918;-24
2022/09/13 02:20:24;;;;;;;;;;;19.20;99.90;;;;;;4587978;19;20389;-25
2022/09/13 02:22:01;;;;;;;;;;;19.10;99.90;;;;;;4587066;19;20390;-25
2022/09/13 02:23:36;;;;;;;;;;;19.10;99.90;;;;;;4588283;19;20164;-25
2022/09/13 02:25:17;;;;;;;;;;;19.10;99.90;;;;;;4587113;19;19925;-24
2022/09/13 02:26:55;;;;;;;;;;;19.10;99.90;;;;;;4587605;19;19915;-26
2022/09/13 02:28:41;;;;;;;;;;;19.20;99.90;;;;;;4587488;19;20396;-26
2022/09/13 02:30:13;;;;;;;;;;;19.10;99.90;;;;;;4587638;19;19911;-25
2022/09/13 02:31:49;;;;;;;;;;;19.20;99.90;;;;;;4587162;19;19915;-25
2022/09/13 02:33:23;;;;;;;;;;;19.20;99.90;;;;;;4588084;19;19934;-26
2022/09/13 02:34:57;;;;;;;;;;;19.20;99.90;;;;;;4588144;19;19915;-26
2022/09/13 02:36:30;;;;;;;;;;;19.20;99.90;;;;;;4588365;19;19918;-23
2022/09/13 02:38:03;;;;;;;;;;;19.10;99.90;;;;;;4589793;19;19921;-24
2022/09/13 02:39:37;;;;;;;;;;;19.20;99.90;;;;;;4587094;19;19986;-25
2022/09/13 02:41:13;;;;;;;;;;;19.10;99.90;;;;;;4590235;19;19951;-25
2022/09/13 02:43:06;;;;;;;;;;;19.10;99.90;;;;;;4587655;19;19919;-25
2022/09/13 02:44:41;;;;;;;;;;;19.10;99.90;;;;;;4589916;19;19930;-26
2022/09/13 02:46:16;;;;;;;;;;;19.20;99.90;;;;;;4589724;19;20274;-27
2022/09/13 02:47:56;;;;;;;;;;;19.10;99.90;;;;;;4589122;19;19926;-24
2022/09/13 02:49:57;;;;;;;;;;;19.20;99.90;;;;;;4589056;19;19936;-28
2022/09/13 02:51:51;;;;;;;;;;;19.10;99.90;;;;;;4589181;19;19970;-24
2022/09/13 02:53:46;;;;;;;;;;;19.20;99.90;;;;;;4587003;19;19938;-25
2022/09/13 02:55:22;;;;;;;;;;;19.20;99.90;;;;;;4587927;19;19959;-26
2022/09/13 02:57:07;;;;;;;;;;;19.10;99.90;;;;;;4589720;19;20256;-26
2022/09/13 02:58:54;;;;;;;;;;;19.20;99.90;;;;;;4587052;19;19914;-25
2022/09/13 03:00:30;;;;;;;;;;;19.20;99.90;;;;;;4587955;19;19911;-25
2022/09/13 03:02:05;;;;;;;;;;;19.10;99.90;;;;;;4589097;19;19919;-26
2022/09/13 03:03:38;;;;;;;;;;;19.20;99.90;;;;;;4589266;19;19959;-25
2022/09/13 03:05:12;;;;;;;;;;;19.20;99.90;;;;;;4589950;19;19918;-25
2022/09/13 03:06:47;;;;;;;;;;;19.10;99.90;;;;;;4588844;19;19921;-24
2022/09/13 03:08:21;;;;;;;;;;;19.20;99.90;;;;;;4589296;19;19915;-26
2022/09/13 03:09:58;;;;;;;;;;;19.20;99.90;;;;;;4588107;19;19911;-24
2022/09/13 03:11:51;;;;;;;;;;;19.20;99.90;;;;;;4587338;19;20243;-27
2022/09/13 03:13:52;;;;;;;;;;;19.10;99.90;;;;;;4586929;19;19930;-26
2022/09/13 03:15:41;;;;;;;;;;;19.10;99.90;;;;;;4586713;19;19922;-25
2022/09/13 03:17:14;;;;;;;;;;;19.20;99.90;;;;;;4587413;19;19921;-25
2022/09/13 03:18:51;;;;;;;;;;;19.20;99.90;;;;;;4586658;19;19919;-27
2022/09/13 03:20:36;;;;;;;;;;;19.10;99.90;;;;;;4588583;19;20472;-26
2022/09/13 03:22:07;;;;;;;;;;;19.10;99.90;;;;;;4587093;19;19915;-25
2022/09/13 03:23:39;;;;;;;;;;;19.10;99.90;;;;;;4587015;19;19960;-27
2022/09/13 03:25:27;;;;;;;;;;;19.20;99.90;;;;;;4587412;19;19922;-27
2022/09/13 03:27:10;;;;;;;;;;;19.10;99.90;;;;;;4586969;19;19915;-26
2022/09/13 03:29:08;;;;;;;;;;;19.10;99.90;;;;;;4585903;19;19944;-27
2022/09/13 03:30:50;;;;;;;;;;;19.20;99.90;;;;;;4586704;19;19915;-26
2022/09/13 03:32:39;;;;;;;;;;;19.10;99.90;;;;;;4587481;19;19915;-27
2022/09/13 03:34:19;;;;;;;;;;;19.10;99.90;;;;;;4586437;19;20338;-25
2022/09/13 03:35:50;;;;;;;;;;;19.10;99.90;;;;;;4586843;19;19935;-26
2022/09/13 03:37:26;;;;;;;;;;;19.10;99.90;;;;;;4587294;19;20246;-24
2022/09/13 03:39:02;;;;;;;;;;;19.10;99.90;;;;;;4586574;19;19915;-25
2022/09/13 03:40:50;;;;;;;;;;;19.10;99.90;;;;;;4586931;19;19910;-27
2022/09/13 03:42:31;;;;;;;;;;;19.10;99.90;;;;;;4586751;19;19922;-25
2022/09/13 03:44:04;;;;;;;;;;;19.20;99.90;;;;;;4586899;19;19915;-28
2022/09/13 03:45:40;;;;;;;;;;;19.10;99.90;;;;;;4586124;19;19919;-24
2022/09/13 03:47:17;;;;;;;;;;;19.10;99.90;;;;;;4585981;19;19919;-25
2022/09/13 03:48:49;;;;;;;;;;;19.10;99.90;;;;;;4586225;19;20346;-24
2022/09/13 03:50:23;;;;;;;;;;;19.10;99.90;;;;;;4586054;19;19959;-24
2022/09/13 03:51:58;;;;;;;;;;;19.10;99.90;;;;;;4586384;19;19915;-26
2022/09/13 03:53:35;;;;;;;;;;;19.10;99.90;;;;;;4588162;19;20383;-27
2022/09/13 03:55:10;;;;;;;;;;;19.10;99.90;;;;;;4587333;19;19932;-24
2022/09/13 03:56:42;;;;;;;;;;;19.10;99.90;;;;;;4585885;19;19915;-25
2022/09/13 03:58:16;;;;;;;;;;;19.10;99.90;;;;;;4586473;19;20026;-24
2022/09/13 03:59:56;;;;;;;;;;;19.10;99.90;;;;;;4587561;19;19915;-23
2022/09/13 04:01:31;;;;;;;;;;;19.10;99.90;;;;;;4584044;19;19974;-24
2022/09/13 04:03:03;;;;;;;;;;;19.10;99.90;;;;;;4588764;19;19947;-25
2022/09/13 04:04:35;;;;;;;;;;;19.10;99.90;;;;;;4589075;19;19919;-25
2022/09/13 04:06:09;;;;;;;;;;;19.10;99.90;;;;;;4588682;19;19915;-24
2022/09/13 04:07:40;;;;;;;;;;;19.10;99.90;;;;;;4589194;19;19926;-26
2022/09/13 04:09:12;;;;;;;;;;;19.10;99.90;;;;;;4585892;19;19920;-26
2022/09/13 04:10:42;;;;;;;;;;;19.10;99.90;;;;;;4587593;19;20248;-24
2022/09/13 04:12:14;;;;;;;;;;;19.10;99.90;;;;;;4589126;19;19923;-25
2022/09/13 04:13:46;;;;;;;;;;;19.10;99.90;;;;;;4588515;19;19982;-27
2022/09/13 04:15:18;;;;;;;;;;;19.10;99.90;;;;;;4586686;19;19939;-28
2022/09/13 04:16:53;;;;;;;;;;;19.10;99.90;;;;;;4588896;19;19919;-25
2022/09/13 04:18:26;;;;;;;;;;;19.10;99.90;;;;;;4587674;19;19910;-25
2022/09/13 04:19:59;;;;;;;;;;;19.10;99.90;;;;;;4588410;19;20363;-27
2022/09/13 04:21:30;;;;;;;;;;;19.10;99.90;;;;;;4588672;19;19915;-24
2022/09/13 04:23:04;;;;;;;;;;;19.10;99.90;;;;;;4591530;19;19915;-25
2022/09/13 04:24:38;;;;;;;;;;;19.10;99.90;;;;;;4590614;19;19926;-25
2022/09/13 04:26:16;;;;;;;;;;;19.10;99.90;;;;;;4592638;19;19929;-25
2022/09/13 04:27:48;;;;;;;;;;;19.10;99.90;;;;;;4592492;19;19925;-25
2022/09/13 04:29:31;;;;;;;;;;;19.10;99.90;;;;;;4589344;19;19919;-25
2022/09/13 04:31:06;;;;;;;;;;;19.10;99.90;;;;;;4590250;19;19911;-24
2022/09/13 04:32:38;;;;;;;;;;;19.10;99.90;;;;;;4591121;19;19922;-23
2022/09/13 04:34:09;;;;;;;;;;;19.10;99.90;;;;;;4592566;19;20263;-25
2022/09/13 04:35:42;;;;;;;;;;;19.10;99.90;;;;;;4593042;19;19919;-25
2022/09/13 04:37:13;;;;;;;;;;;19.10;99.90;;;;;;4593350;19;19922;-25
2022/09/13 04:38:47;;;;;;;;;;;19.10;99.90;;;;;;4591562;19;19923;-26
2022/09/13 04:40:24;;;;;;;;;;;19.10;99.90;;;;;;4589880;19;19925;-24
2022/09/13 04:41:58;;;;;;;;;;;19.10;99.90;;;;;;4591429;19;19922;-26
2022/09/13 04:43:33;;;;;;;;;;;19.10;99.90;;;;;;4589670;19;19936;-23
2022/09/13 04:45:05;;;;;;;;;;;19.10;99.90;;;;;;4592263;19;19923;-25
2022/09/13 04:46:36;;;;;;;;;;;19.10;99.90;;;;;;4592751;19;19962;-24
2022/09/13 04:48:12;;;;;;;;;;;19.10;99.90;;;;;;4589255;19;19911;-24
2022/09/13 04:49:48;;;;;;;;;;;19.10;99.90;;;;;;4590317;19;19919;-25
2022/09/13 04:51:24;;;;;;;;;;;19.10;99.90;;;;;;4594197;19;19919;-23
2022/09/13 04:52:58;;;;;;;;;;;19.10;99.90;;;;;;4592581;19;19918;-23
2022/09/13 04:54:31;;;;;;;;;;;19.10;99.90;;;;;;4593264;19;19918;-25
2022/09/13 04:56:04;;;;;;;;;;;19.10;99.90;;;;;;4588755;19;19963;-23
2022/09/13 04:57:39;;;;;;;;;;;19.10;99.90;;;;;;4588723;19;19915;-25
2022/09/13 04:59:11;;;;;;;;;;;19.10;99.90;;;;;;4590867;19;19926;-25
2022/09/13 05:00:42;;;;;;;;;;;19.10;99.90;;;;;;4588980;19;20310;-26
2022/09/13 05:02:17;;;;;;;;;;;19.10;99.90;;;;;;4591644;19;20253;-27
2022/09/13 05:03:53;;;;;;;;;;;19.10;99.90;;;;;;4592542;19;20322;-25
2022/09/13 05:05:31;;;;;;;;;;;19.10;99.90;;;;;;4591905;19;19922;-25
2022/09/13 05:07:04;;;;;;;;;;;19.10;99.90;;;;;;4590567;19;19922;-26
2022/09/13 05:08:38;;;;;;;;;;;19.10;99.90;;;;;;4591583;19;19970;-26
2022/09/13 05:10:14;;;;;;;;;;;19.20;99.90;;;;;;4587662;19;19925;-25
2022/09/13 05:11:50;;;;;;;;;;;19.20;99.90;;;;;;4588674;19;20345;-27
2022/09/13 05:13:27;;;;;;;;;;;19.10;99.90;;;;;;4593795;19;19914;-27
2022/09/13 05:15:03;;;;;;;;;;;19.10;99.90;;;;;;4591032;19;19919;-25
2022/09/13 05:16:41;;;;;;;;;;;19.20;99.90;;;;;;4592362;19;19923;-25
2022/09/13 05:18:17;;;;;;;;;;;19.10;99.90;;;;;;4591013;19;19943;-25
2022/09/13 05:19:51;;;;;;;;;;;19.20;99.90;;;;;;4592079;19;19918;-25
2022/09/13 05:21:23;;;;;;;;;;;19.20;99.90;;;;;;4591017;19;19923;-27
2022/09/13 05:22:55;;;;;;;;;;;19.20;99.90;;;;;;4591526;19;20333;-26
2022/09/13 05:24:26;;;;;;;;;;;19.20;99.90;;;;;;4590887;19;19952;-25
2022/09/13 05:25:57;;;;;;;;;;;19.20;99.90;;;;;;4591286;19;20284;-25
2022/09/13 05:27:28;;;;;;;;;;;19.10;99.90;;;;;;4592221;19;19919;-28
2022/09/13 05:29:00;;;;;;;;;;;19.10;99.90;;;;;;4592313;19;20261;-27
2022/09/13 05:30:41;;;;;;;;;;;19.20;99.90;;;;;;4590533;19;19960;-26
2022/09/13 05:32:16;;;;;;;;;;;19.30;99.90;;;;;;4593749;19;19921;-25
2022/09/13 05:34:05;;;;;;;;;;;19.30;99.90;;;;;;4592984;19;19930;-25
2022/09/13 05:35:53;;;;;;;;;;;19.30;99.90;;;;;;4591755;19;20264;-26
2022/09/13 05:37:26;;;;;;;;;;;19.40;99.90;;;;;;4593104;19;20259;-25
2022/09/13 05:38:57;;;;;;;;;;;19.40;99.90;;;;;;4591578;19;19911;-25
2022/09/13 05:40:34;;;;;;;;;;;19.40;99.90;;;;;;4590440;19;20374;-28
2022/09/13 05:42:08;;;;;;;;;;;19.40;99.90;;;;;;4591526;19;19922;-26
2022/09/13 05:43:49;;;;;;;;;;;19.40;99.90;;;;;;4594358;19;19932;-27
2022/09/13 05:45:36;;;;;;;;;;;19.50;99.90;;;;;;4589284;19;21395;-25
2022/09/13 05:47:33;;;;;;;;;;;19.50;99.90;;;;;;4591058;19;19925;-28
2022/09/13 05:49:16;;;;;;;;;;;19.50;99.90;;;;;;4590197;19;19977;-26
2022/09/13 05:50:59;;;;;;;;;;;19.50;99.90;;;;;;4590652;19;19922;-25
2022/09/13 05:53:00;;;;;;;;;;;19.50;99.90;;;;;;4591258;19;19949;-23
2022/09/13 05:54:35;;;;;;;;;;;19.50;99.90;;;;;;4589903;19;19922;-22
2022/09/13 05:56:11;;;;;;;;;;;19.50;99.90;;;;;;4590891;19;19942;-24
2022/09/13 05:57:49;;;;;;;;;;;19.50;99.90;;;;;;4589711;19;19922;-25
2022/09/13 05:59:34;;;;;;;;;;;19.50;99.90;;;;;;4590461;19;19918;-24
2022/09/13 06:01:23;;;;;;;;;;;19.50;99.90;;;;;;4590305;19;19978;-24
2022/09/13 06:03:04;;;;;;;;;;;19.50;99.90;;;;;;4591212;19;20541;-24
2022/09/13 06:04:42;;;;;;;;;;;19.50;99.90;;;;;;4591177;19;20255;-24
2022/09/13 06:06:13;;;;;;;;;;;19.50;99.90;;;;;;4590881;19;20007;-23
2022/09/13 06:07:48;;;;;;;;;;;19.50;99.90;;;;;;4590385;19;19926;-25
2022/09/13 06:09:30;;;;;;;;;;;19.60;99.90;;;;;;4588956;19;19930;-24
2022/09/13 06:11:12;;;;;;;;;;;19.50;99.90;;;;;;4588140;19;19918;-24
2022/09/13 06:12:47;;;;;;;;;;;19.50;99.90;;;;;;4588294;19;19990;-23
2022/09/13 06:14:27;;;;;;;;;;;19.50;99.90;;;;;;4588411;19;20294;-26
2022/09/13 06:15:59;;;;;;;;;;;19.50;99.90;;;;;;4591629;19;20286;-24
2022/09/13 06:17:32;;;;;;;;;;;19.50;99.90;;;;;;4586661;19;19931;-26
2022/09/13 06:19:06;;;;;;;;;;;19.50;99.90;;;;;;4588739;19;19942;-26
2022/09/13 06:20:46;;;;;;;;;;;19.60;99.90;;;;;;4589293;19;20014;-24
2022/09/13 06:22:32;;;;;;;;;;;19.60;99.90;;;;;;4589663;19;19914;-23
2022/09/13 06:24:11;;;;;;;;;;;17.50;99.90;;;;;;4589171;19;19918;-23
2022/09/13 06:25:46;;;;;;;;;;;16.40;99.90;;;;;;4589456;19;19922;-22
2022/09/13 06:27:27;;;;;;;;;;;16.20;99.90;;;;;;4591298;19;19915;-23
2022/09/13 06:28:59;;;;;;;;;;;16.00;99.90;;;;;;4590693;19;19934;-24
2022/09/13 06:30:34;;;;;;;;;;;16.00;99.90;;;;;;4591156;19;19922;-24
2022/09/13 06:32:30;;;;;;;;;;;16.00;99.90;;;;;;4590677;19;19925;-23
2022/09/13 06:34:14;;;;;;;;;;;16.00;99.90;;;;;;4589319;19;19927;-22
2022/09/13 06:35:50;;;;;;;;;;;16.00;99.90;;;;;;4590374;19;19914;-24
2022/09/13 06:37:23;;;;;;;;;;;16.00;99.90;;;;;;4590400;19;19926;-23
2022/09/13 06:38:59;;;;;;;;;;;16.10;99.90;;;;;;4590581;19;20364;-23
2022/09/13 06:40:33;;;;;;;;;;;16.10;99.90;;;;;;4588959;19;19923;-24
2022/09/13 06:42:09;;;;;;;;;;;16.10;99.90;;;;;;4590602;19;20325;-24
2022/09/13 06:43:43;;;;;;;;;;;16.10;99.90;;;;;;4590488;19;19922;-25
2022/09/13 06:45:23;;;;;;;;;;;16.10;99.90;;;;;;4589821;19;19937;-26
2022/09/13 06:47:00;;;;;;;;;;;16.10;99.90;;;;;;4586319;19;19978;-27
2022/09/13 06:48:38;;;;;;;;;;;16.20;99.90;;;;;;4589707;19;19925;-25
2022/09/13 06:50:17;;;;;;;;;;;16.20;99.90;;;;;;4588149;19;20350;-25
2022/09/13 06:51:52;;;;;;;;;;;16.20;99.90;;;;;;4589072;19;19978;-25
2022/09/13 06:53:30;;;;;;;;;;;16.20;99.90;;;;;;4588865;19;19997;-25
2022/09/13 06:55:17;;;;;;;;;;;16.30;99.90;;;;;;4589085;19;19970;-25
2022/09/13 06:56:50;;;;;;;;;;;16.30;99.90;;;;;;4589368;19;20386;-26
2022/09/13 06:58:26;;;;;;;;;;;16.30;99.90;;;;;;4592009;19;19918;-24
2022/09/13 07:00:05;;;;;;;;;;;16.30;99.90;;;;;;4589987;19;19946;-24
2022/09/13 07:01:44;;;;;;;;;;;16.40;99.90;;;;;;4590141;19;19914;-25
2022/09/13 07:03:36;;;;;;;;;;;16.40;99.90;;;;;;4589092;19;19952;-24
2022/09/13 07:05:15;;;;;;;;;;;16.40;99.90;;;;;;4590586;19;19927;-24
2022/09/13 07:07:00;;;;;;;;;;;16.40;99.90;;;;;;4589516;19;20362;-27
2022/09/13 07:08:45;;;;;;;;;;;16.40;99.90;;;;;;4588769;19;19914;-25
2022/09/13 07:10:16;;;;;;;;;;;16.40;99.90;;;;;;4587586;19;19919;-25
2022/09/13 07:11:48;;;;;;;;;;;16.50;99.90;;;;;;4589343;19;20329;-24
2022/09/13 07:13:19;;;;;;;;;;;16.50;99.90;;;;;;4590132;19;19911;-24
2022/09/13 07:14:57;;;;;;;;;;;16.50;99.90;;;;;;4589778;19;20342;-24
2022/09/13 07:16:34;;;;;;;;;;;16.50;99.90;;;;;;4588454;19;19922;-24
2022/09/13 07:18:07;;;;;;;;;;;16.50;99.90;;;;;;4589454;19;20250;-26
2022/09/13 07:19:39;;;;;;;;;;;16.50;99.90;;;;;;4589890;19;20341;-25
2022/09/13 07:21:11;;;;;;;;;;;16.50;99.90;;;;;;4589596;19;19926;-24
2022/09/13 07:22:43;;;;;;;;;;;16.60;99.90;;;;;;4589342;19;20280;-25
2022/09/13 07:24:20;;;;;;;;;;;16.50;99.90;;;;;;4589684;19;19922;-25
2022/09/13 07:25:55;;;;;;;;;;;16.60;99.90;;;;;;4589742;19;20333;-25
2022/09/13 07:27:27;;;;;;;;;;;16.60;99.90;;;;;;4591369;19;19911;-26
2022/09/13 07:28:59;;;;;;;;;;;16.60;99.90;;;;;;4589691;19;19915;-25
2022/09/13 07:30:31;;;;;;;;;;;16.70;99.90;;;;;;4589312;19;19921;-25
2022/09/13 07:32:02;;;;;;;;;;;16.60;99.90;;;;;;4588621;19;19919;-25
2022/09/13 07:33:35;;;;;;;;;;;16.70;99.90;;;;;;4588897;19;19931;-25
2022/09/13 07:35:09;;;;;;;;;;;16.70;99.90;;;;;;4588194;19;20338;-25
2022/09/13 07:36:42;;;;;;;;;;;16.70;99.90;;;;;;4589286;19;20269;-25
2022/09/13 07:38:14;;;;;;;;;;;16.70;99.90;;;;;;4589651;19;19922;-25
2022/09/13 07:39:56;;;;;;;;;;;16.70;99.90;;;;;;4587852;19;19978;-25
2022/09/13 07:41:42;;;;;;;;;;;16.80;99.90;;;;;;4591465;19;19915;-25
2022/09/13 07:43:19;;;;;;;;;;;16.80;99.90;;;;;;4588559;19;19915;-25
2022/09/13 07:45:02;;;;;;;;;;;16.80;99.90;;;;;;4588904;19;19915;-27
2022/09/13 07:46:42;;;;;;;;;;;16.80;99.90;;;;;;4588647;19;19919;-25
2022/09/13 07:48:19;;;;;;;;;;;16.90;99.90;;;;;;4587578;19;19918;-25
2022/09/13 07:49:53;;;;;;;;;;;16.90;99.90;;;;;;4587525;19;19915;-25
2022/09/13 07:51:33;;;;;;;;;;;16.90;99.90;;;;;;4589197;19;19923;-26
2022/09/13 07:53:07;;;;;;;;;;;16.90;99.90;;;;;;4588742;19;19926;-25
2022/09/13 07:54:40;;;;;;;;;;;16.90;99.90;;;;;;4589305;19;19930;-25
2022/09/13 07:56:13;;;;;;;;;;;17.00;99.90;;;;;;4587692;19;19986;-25
2022/09/13 07:57:48;;;;;;;;;;;17.00;99.90;;;;;;4590833;19;19918;-24
2022/09/13 07:59:26;;;;;;;;;;;16.90;99.90;;;;;;4594046;19;19934;-25
2022/09/13 08:01:10;;;;;;;;;;;17.00;99.90;;;;;;4593757;19;19939;-25
2022/09/13 08:02:42;;;;;;;;;;;17.00;99.90;;;;;;4591857;19;20389;-25
2022/09/13 08:04:18;;;;;;;;;;;17.00;99.90;;;;;;4593273;19;19922;-23
2022/09/13 08:05:52;;;;;;;;;;;17.00;99.90;;;;;;4592268;19;19926;-24
2022/09/13 08:07:26;;;;;;;;;;;17.00;99.90;;;;;;4593322;19;20411;-25
2022/09/13 08:09:17;;;;;;;;;;;17.00;99.90;;;;;;4593118;19;19926;-26
2022/09/13 08:11:18;;;;;;;;;;;17.00;99.90;;;;;;4592062;19;19927;-24
2022/09/13 08:13:19;;;;;;;;;;;17.10;99.90;;;;;;4588774;19;19915;-27
2022/09/13 08:14:59;;;;;;;;;;;17.10;99.90;;;;;;4590874;19;20334;-24
2022/09/13 08:16:30;;;;;;;;;;;17.10;99.90;;;;;;4589803;19;19960;-26
2022/09/13 08:18:20;;;;;;;;;;;17.10;99.90;;;;;;4591190;19;20024;-25
2022/09/13 08:20:05;;;;;;;;;;;17.20;99.90;;;;;;4591662;19;19918;-25
